Temvik, North Dakota
Current Conditions -  °F | °C
As of 12:35 AM on Saturday 20 Dec 2014 (Local Time) from K7L2 Reporting Station
Clear Clear  
Wind Chill: 16°   Ceiling: Unl
Heat Index: 16°   Visibility: 8mi
Dew Point: 16°   Wind: 3mph
Humidity: 100%   Direction: 100°E
Pressure: 29.95"   Gusts: NA
Location:  46.3287°N, 100.226°W
Report Text: K7L2 200635Z AUTO 10003KT 8SM CLR M09/M09 A2995 RMK AO2
Loading
Personal Weather Stations






























Interactive Weather Map New forecast layout! Learn more

10-Day Weather Forecast

Advertisements
Track Severe Weather on mobile